sensor_id;sensor_type;location;lat;lon;timestamp;P1;durP1;ratioP1;P2;durP2;ratioP2
70450;SDS011;58869;51.982;4.450;2023-05-10T00:01:07;32.88;;;31.96;;
70450;SDS011;58869;51.982;4.450;2023-05-10T00:03:48;32.63;;;31.71;;
70450;SDS011;58869;51.982;4.450;2023-05-10T00:06:13;31.25;;;30.70;;
70450;SDS011;58869;51.982;4.450;2023-05-10T00:08:39;33.63;;;32.90;;
70450;SDS011;58869;51.982;4.450;2023-05-10T00:11:04;33.87;;;33.48;;
70450;SDS011;58869;51.982;4.450;2023-05-10T00:13:29;34.58;;;33.99;;
70450;SDS011;58869;51.982;4.450;2023-05-10T00:15:55;34.97;;;34.45;;
70450;SDS011;58869;51.982;4.450;2023-05-10T00:18:20;32.59;;;32.37;;
70450;SDS011;58869;51.982;4.450;2023-05-10T00:20:46;34.47;;;33.75;;
70450;SDS011;58869;51.982;4.450;2023-05-10T00:30:57;31.33;;;30.98;;
70450;SDS011;58869;51.982;4.450;2023-05-10T00:33:35;32.01;;;31.45;;
70450;SDS011;58869;51.982;4.450;2023-05-10T00:36:01;30.02;;;29.50;;
70450;SDS011;58869;51.982;4.450;2023-05-10T00:38:26;29.18;;;28.68;;
70450;SDS011;58869;51.982;4.450;2023-05-10T00:40:52;29.88;;;29.51;;
70450;SDS011;58869;51.982;4.450;2023-05-10T00:43:17;31.32;;;30.67;;
70450;SDS011;58869;51.982;4.450;2023-05-10T00:45:43;33.42;;;32.36;;
70450;SDS011;58869;51.982;4.450;2023-05-10T00:48:08;33.35;;;32.51;;
70450;SDS011;58869;51.982;4.450;2023-05-10T00:50:34;35.32;;;34.24;;
70450;SDS011;58869;51.982;4.450;2023-05-10T00:53:00;34.63;;;33.66;;
70450;SDS011;58869;51.982;4.450;2023-05-10T00:55:26;35.48;;;34.45;;
70450;SDS011;58869;51.982;4.450;2023-05-10T00:57:53;36.26;;;35.15;;
70450;SDS011;58869;51.982;4.450;2023-05-10T01:00:18;33.95;;;33.21;;
70450;SDS011;58869;51.982;4.450;2023-05-10T01:02:45;33.49;;;32.49;;
70450;SDS011;58869;51.982;4.450;2023-05-10T01:05:11;33.19;;;31.93;;
70450;SDS011;58869;51.982;4.450;2023-05-10T01:07:37;33.88;;;32.68;;
70450;SDS011;58869;51.982;4.450;2023-05-10T01:10:03;36.77;;;35.45;;
70450;SDS011;58869;51.982;4.450;2023-05-10T01:12:30;37.67;;;36.34;;
70450;SDS011;58869;51.982;4.450;2023-05-10T01:14:56;38.58;;;37.06;;
70450;SDS011;58869;51.982;4.450;2023-05-10T01:17:36;37.47;;;36.32;;
70450;SDS011;58869;51.982;4.450;2023-05-10T01:20:03;37.77;;;36.49;;
70450;SDS011;58869;51.982;4.450;2023-05-10T01:22:42;37.64;;;36.84;;
70450;SDS011;58869;51.982;4.450;2023-05-10T01:34:16;39.65;;;38.12;;
70450;SDS011;58869;51.982;4.450;2023-05-10T01:36:58;39.54;;;38.53;;
70450;SDS011;58869;51.982;4.450;2023-05-10T01:42:21;37.41;;;36.20;;
70450;SDS011;58869;51.982;4.450;2023-05-10T01:47:44;32.06;;;31.34;;
70450;SDS011;58869;51.982;4.450;2023-05-10T01:50:20;30.49;;;29.71;;
70450;SDS011;58869;51.982;4.450;2023-05-10T01:52:54;29.96;;;29.22;;
70450;SDS011;58869;51.982;4.450;2023-05-10T01:55:22;28.06;;;27.59;;
70450;SDS011;58869;51.982;4.450;2023-05-10T01:57:52;27.71;;;27.33;;
70450;SDS011;58869;51.982;4.450;2023-05-10T02:00:33;27.92;;;27.49;;
70450;SDS011;58869;51.982;4.450;2023-05-10T02:03:00;27.46;;;27.11;;
70450;SDS011;58869;51.982;4.450;2023-05-10T02:05:31;27.08;;;26.81;;
70450;SDS011;58869;51.982;4.450;2023-05-10T02:07:58;25.82;;;25.38;;
70450;SDS011;58869;51.982;4.450;2023-05-10T02:10:27;25.30;;;24.85;;
70450;SDS011;58869;51.982;4.450;2023-05-10T02:12:53;23.80;;;23.55;;
70450;SDS011;58869;51.982;4.450;2023-05-10T02:15:24;24.35;;;24.11;;
70450;SDS011;58869;51.982;4.450;2023-05-10T02:17:50;25.17;;;24.84;;
70450;SDS011;58869;51.982;4.450;2023-05-10T02:20:39;26.07;;;25.67;;
70450;SDS011;58869;51.982;4.450;2023-05-10T02:23:14;28.05;;;27.83;;
70450;SDS011;58869;51.982;4.450;2023-05-10T02:25:43;28.20;;;27.75;;
70450;SDS011;58869;51.982;4.450;2023-05-10T02:28:10;29.87;;;29.42;;
70450;SDS011;58869;51.982;4.450;2023-05-10T02:30:40;31.17;;;30.74;;
70450;SDS011;58869;51.982;4.450;2023-05-10T02:33:19;33.11;;;32.53;;
70450;SDS011;58869;51.982;4.450;2023-05-10T02:35:46;33.84;;;33.19;;
70450;SDS011;58869;51.982;4.450;2023-05-10T02:38:12;33.76;;;33.20;;
70450;SDS011;58869;51.982;4.450;2023-05-10T02:40:41;33.53;;;33.07;;
70450;SDS011;58869;51.982;4.450;2023-05-10T02:43:12;34.03;;;33.50;;
70450;SDS011;58869;51.982;4.450;2023-05-10T02:45:39;33.87;;;33.37;;
70450;SDS011;58869;51.982;4.450;2023-05-10T02:48:05;34.12;;;33.53;;
70450;SDS011;58869;51.982;4.450;2023-05-10T02:50:32;35.00;;;34.41;;
70450;SDS011;58869;51.982;4.450;2023-05-10T02:53:03;34.76;;;34.16;;
70450;SDS011;58869;51.982;4.450;2023-05-10T02:55:36;36.33;;;35.60;;
70450;SDS011;58869;51.982;4.450;2023-05-10T02:58:04;37.68;;;37.02;;
70450;SDS011;58869;51.982;4.450;2023-05-10T03:00:32;37.12;;;36.53;;
70450;SDS011;58869;51.982;4.450;2023-05-10T03:03:01;33.49;;;33.13;;
70450;SDS011;58869;51.982;4.450;2023-05-10T03:05:27;30.01;;;29.68;;
70450;SDS011;58869;51.982;4.450;2023-05-10T03:11:36;29.46;;;29.14;;
70450;SDS011;58869;51.982;4.450;2023-05-10T03:14:37;27.70;;;27.05;;
70450;SDS011;58869;51.982;4.450;2023-05-10T03:19:58;24.56;;;24.17;;
70450;SDS011;58869;51.982;4.450;2023-05-10T03:22:34;27.32;;;26.87;;
70450;SDS011;58869;51.982;4.450;2023-05-10T03:25:04;26.98;;;26.92;;
70450;SDS011;58869;51.982;4.450;2023-05-10T03:27:34;30.09;;;29.78;;
70450;SDS011;58869;51.982;4.450;2023-05-10T03:33:32;33.11;;;32.59;;
70450;SDS011;58869;51.982;4.450;2023-05-10T03:52:13;33.69;;;32.55;;
70450;SDS011;58869;51.982;4.450;2023-05-10T03:54:47;29.78;;;28.83;;
70450;SDS011;58869;51.982;4.450;2023-05-10T04:00:18;26.49;;;25.77;;
70450;SDS011;58869;51.982;4.450;2023-05-10T04:06:49;28.30;;;27.67;;
70450;SDS011;58869;51.982;4.450;2023-05-10T04:09:17;25.90;;;25.18;;
70450;SDS011;58869;51.982;4.450;2023-05-10T04:11:48;26.52;;;25.84;;
70450;SDS011;58869;51.982;4.450;2023-05-10T04:17:12;30.74;;;29.26;;
70450;SDS011;58869;51.982;4.450;2023-05-10T04:23:08;26.55;;;25.83;;
70450;SDS011;58869;51.982;4.450;2023-05-10T04:32:17;25.63;;;24.09;;
70450;SDS011;58869;51.982;4.450;2023-05-10T04:55:57;12.94;;;12.70;;
70450;SDS011;58869;51.982;4.450;2023-05-10T05:04:55;12.06;;;12.02;;
70450;SDS011;58869;51.982;4.450;2023-05-10T05:08:16;10.43;;;10.37;;
70450;SDS011;58869;51.982;4.450;2023-05-10T05:14:22;6.42;;;6.31;;
70450;SDS011;58869;51.982;4.450;2023-05-10T05:16:49;5.76;;;5.65;;
70450;SDS011;58869;51.982;4.450;2023-05-10T05:19:18;5.25;;;5.21;;
70450;SDS011;58869;51.982;4.450;2023-05-10T05:21:44;4.88;;;4.82;;
70450;SDS011;58869;51.982;4.450;2023-05-10T05:24:09;4.37;;;4.37;;
70450;SDS011;58869;51.982;4.450;2023-05-10T05:26:37;4.72;;;4.72;;
70450;SDS011;58869;51.982;4.450;2023-05-10T05:29:04;4.85;;;4.85;;
70450;SDS011;58869;51.982;4.450;2023-05-10T05:31:30;4.84;;;4.84;;
70450;SDS011;58869;51.982;4.450;2023-05-10T05:33:59;5.55;;;5.41;;
70450;SDS011;58869;51.982;4.450;2023-05-10T05:36:24;5.72;;;5.71;;
70450;SDS011;58869;51.982;4.450;2023-05-10T05:38:50;6.26;;;6.26;;
70450;SDS011;58869;51.982;4.450;2023-05-10T05:41:15;6.64;;;6.64;;
70450;SDS011;58869;51.982;4.450;2023-05-10T05:46:16;8.69;;;8.69;;
70450;SDS011;58869;51.982;4.450;2023-05-10T05:48:48;9.51;;;9.51;;
70450;SDS011;58869;51.982;4.450;2023-05-10T05:51:22;10.29;;;10.26;;
70450;SDS011;58869;51.982;4.450;2023-05-10T05:53:49;10.87;;;10.85;;
70450;SDS011;58869;51.982;4.450;2023-05-10T05:56:21;11.53;;;11.41;;
70450;SDS011;58869;51.982;4.450;2023-05-10T06:30:50;9.95;;;9.85;;
70450;SDS011;58869;51.982;4.450;2023-05-10T06:33:31;9.95;;;9.94;;
70450;SDS011;58869;51.982;4.450;2023-05-10T06:35:59;9.63;;;9.63;;
70450;SDS011;58869;51.982;4.450;2023-05-10T06:38:24;9.85;;;9.85;;
70450;SDS011;58869;51.982;4.450;2023-05-10T06:40:50;9.58;;;9.57;;
70450;SDS011;58869;51.982;4.450;2023-05-10T06:45:51;7.92;;;7.91;;
70450;SDS011;58869;51.982;4.450;2023-05-10T06:48:17;8.09;;;8.08;;
70450;SDS011;58869;51.982;4.450;2023-05-10T06:50:42;8.66;;;8.66;;
70450;SDS011;58869;51.982;4.450;2023-05-10T06:53:08;8.35;;;8.35;;
70450;SDS011;58869;51.982;4.450;2023-05-10T06:55:33;8.56;;;8.56;;
70450;SDS011;58869;51.982;4.450;2023-05-10T06:57:59;8.68;;;8.68;;
70450;SDS011;58869;51.982;4.450;2023-05-10T07:00:24;8.04;;;8.04;;
70450;SDS011;58869;51.982;4.450;2023-05-10T07:02:50;9.35;;;9.35;;
70450;SDS011;58869;51.982;4.450;2023-05-10T07:05:16;10.52;;;10.44;;
70450;SDS011;58869;51.982;4.450;2023-05-10T07:07:41;10.58;;;10.56;;
70450;SDS011;58869;51.982;4.450;2023-05-10T07:10:10;10.83;;;10.83;;
70450;SDS011;58869;51.982;4.450;2023-05-10T07:13:25;10.66;;;10.66;;
70450;SDS011;58869;51.982;4.450;2023-05-10T07:25:38;10.88;;;10.88;;
70450;SDS011;58869;51.982;4.450;2023-05-10T07:30:45;9.28;;;9.27;;
70450;SDS011;58869;51.982;4.450;2023-05-10T07:36:01;9.35;;;9.27;;
70450;SDS011;58869;51.982;4.450;2023-05-10T07:38:45;8.96;;;8.95;;
70450;SDS011;58869;51.982;4.450;2023-05-10T07:41:13;8.45;;;8.45;;
70450;SDS011;58869;51.982;4.450;2023-05-10T07:43:51;8.30;;;8.29;;
70450;SDS011;58869;51.982;4.450;2023-05-10T07:46:17;7.82;;;7.82;;
70450;SDS011;58869;51.982;4.450;2023-05-10T07:48:44;8.05;;;8.05;;
70450;SDS011;58869;51.982;4.450;2023-05-10T07:51:09;7.81;;;7.81;;
70450;SDS011;58869;51.982;4.450;2023-05-10T07:53:35;7.75;;;7.75;;
70450;SDS011;58869;51.982;4.450;2023-05-10T07:56:19;8.44;;;8.44;;
70450;SDS011;58869;51.982;4.450;2023-05-10T07:58:45;8.00;;;7.98;;
70450;SDS011;58869;51.982;4.450;2023-05-10T08:01:10;8.19;;;8.19;;
70450;SDS011;58869;51.982;4.450;2023-05-10T08:03:36;7.64;;;7.64;;
70450;SDS011;58869;51.982;4.450;2023-05-10T08:06:02;7.65;;;7.65;;
70450;SDS011;58869;51.982;4.450;2023-05-10T08:12:49;8.40;;;8.35;;
70450;SDS011;58869;51.982;4.450;2023-05-10T08:15:15;8.83;;;8.83;;
70450;SDS011;58869;51.982;4.450;2023-05-10T08:17:46;8.46;;;8.46;;
70450;SDS011;58869;51.982;4.450;2023-05-10T08:20:18;7.94;;;7.94;;
70450;SDS011;58869;51.982;4.450;2023-05-10T08:22:46;7.64;;;7.64;;
70450;SDS011;58869;51.982;4.450;2023-05-10T08:25:12;8.34;;;8.34;;
70450;SDS011;58869;51.982;4.450;2023-05-10T08:27:56;8.21;;;8.21;;
70450;SDS011;58869;51.982;4.450;2023-05-10T08:30:24;7.03;;;7.03;;
70450;SDS011;58869;51.982;4.450;2023-05-10T08:39:19;8.34;;;8.34;;
70450;SDS011;58869;51.982;4.450;2023-05-10T08:41:45;8.47;;;8.47;;
70450;SDS011;58869;51.982;4.450;2023-05-10T08:47:16;6.51;;;6.51;;
70450;SDS011;58869;51.982;4.450;2023-05-10T08:49:43;6.03;;;6.03;;
70450;SDS011;58869;51.982;4.450;2023-05-10T08:52:16;6.29;;;6.29;;
70450;SDS011;58869;51.982;4.450;2023-05-10T08:55:23;6.75;;;6.75;;
70450;SDS011;58869;51.982;4.450;2023-05-10T08:57:49;7.03;;;7.03;;
70450;SDS011;58869;51.982;4.450;2023-05-10T09:03:16;7.49;;;7.49;;
70450;SDS011;58869;51.982;4.450;2023-05-10T09:05:53;7.38;;;7.38;;
70450;SDS011;58869;51.982;4.450;2023-05-10T09:08:20;6.67;;;6.67;;
70450;SDS011;58869;51.982;4.450;2023-05-10T09:10:50;5.99;;;5.99;;
70450;SDS011;58869;51.982;4.450;2023-05-10T09:13:23;5.99;;;5.99;;
70450;SDS011;58869;51.982;4.450;2023-05-10T09:15:49;6.07;;;6.07;;
70450;SDS011;58869;51.982;4.450;2023-05-10T09:18:14;6.50;;;6.50;;
70450;SDS011;58869;51.982;4.450;2023-05-10T09:20:46;7.23;;;7.23;;
70450;SDS011;58869;51.982;4.450;2023-05-10T09:23:16;7.98;;;7.97;;
70450;SDS011;58869;51.982;4.450;2023-05-10T09:28:50;8.30;;;8.29;;
70450;SDS011;58869;51.982;4.450;2023-05-10T09:31:18;8.48;;;8.48;;
70450;SDS011;58869;51.982;4.450;2023-05-10T09:33:47;8.45;;;8.45;;
70450;SDS011;58869;51.982;4.450;2023-05-10T09:39:46;7.39;;;7.39;;
70450;SDS011;58869;51.982;4.450;2023-05-10T09:42:17;7.98;;;7.98;;
70450;SDS011;58869;51.982;4.450;2023-05-10T09:44:43;8.35;;;8.35;;
70450;SDS011;58869;51.982;4.450;2023-05-10T09:47:17;8.50;;;8.50;;
70450;SDS011;58869;51.982;4.450;2023-05-10T09:56:46;7.93;;;7.92;;
70450;SDS011;58869;51.982;4.450;2023-05-10T09:59:14;7.76;;;7.72;;
70450;SDS011;58869;51.982;4.450;2023-05-10T10:01:42;6.13;;;6.13;;
70450;SDS011;58869;51.982;4.450;2023-05-10T10:04:17;6.28;;;6.28;;
70450;SDS011;58869;51.982;4.450;2023-05-10T10:06:43;7.14;;;7.14;;
70450;SDS011;58869;51.982;4.450;2023-05-10T10:09:11;7.64;;;7.64;;
70450;SDS011;58869;51.982;4.450;2023-05-10T10:11:37;7.35;;;7.35;;
70450;SDS011;58869;51.982;4.450;2023-05-10T10:14:04;7.20;;;7.14;;
70450;SDS011;58869;51.982;4.450;2023-05-10T10:16:30;8.63;;;8.55;;
70450;SDS011;58869;51.982;4.450;2023-05-10T10:18:57;9.23;;;9.17;;
70450;SDS011;58869;51.982;4.450;2023-05-10T10:21:22;9.11;;;9.05;;
70450;SDS011;58869;51.982;4.450;2023-05-10T10:23:48;9.06;;;9.01;;
70450;SDS011;58869;51.982;4.450;2023-05-10T10:26:15;9.37;;;9.32;;
70450;SDS011;58869;51.982;4.450;2023-05-10T10:28:48;8.86;;;8.80;;
70450;SDS011;58869;51.982;4.450;2023-05-10T10:31:36;8.80;;;8.77;;
70450;SDS011;58869;51.982;4.450;2023-05-10T10:34:30;9.07;;;9.07;;
70450;SDS011;58869;51.982;4.450;2023-05-10T10:37:04;9.41;;;9.41;;
70450;SDS011;58869;51.982;4.450;2023-05-10T10:40:24;8.91;;;8.91;;
70450;SDS011;58869;51.982;4.450;2023-05-10T10:42:58;8.57;;;8.57;;
70450;SDS011;58869;51.982;4.450;2023-05-10T10:48:49;6.40;;;6.40;;
70450;SDS011;58869;51.982;4.450;2023-05-10T10:51:36;6.56;;;6.56;;
70450;SDS011;58869;51.982;4.450;2023-05-10T10:54:09;7.11;;;7.11;;
70450;SDS011;58869;51.982;4.450;2023-05-10T10:56:35;8.00;;;8.00;;
70450;SDS011;58869;51.982;4.450;2023-05-10T10:59:01;8.41;;;8.41;;
70450;SDS011;58869;51.982;4.450;2023-05-10T11:04:17;7.74;;;7.74;;
70450;SDS011;58869;51.982;4.450;2023-05-10T11:14:03;8.80;;;8.80;;
70450;SDS011;58869;51.982;4.450;2023-05-10T11:37:33;7.92;;;7.92;;
70450;SDS011;58869;51.982;4.450;2023-05-10T11:43:20;7.67;;;7.67;;
70450;SDS011;58869;51.982;4.450;2023-05-10T11:46:00;7.82;;;7.82;;
70450;SDS011;58869;51.982;4.450;2023-05-10T11:52:09;6.57;;;6.57;;
70450;SDS011;58869;51.982;4.450;2023-05-10T11:54:52;6.65;;;6.65;;
70450;SDS011;58869;51.982;4.450;2023-05-10T11:57:26;7.60;;;7.60;;
70450;SDS011;58869;51.982;4.450;2023-05-10T12:10:26;8.47;;;8.44;;
70450;SDS011;58869;51.982;4.450;2023-05-10T12:12:52;8.48;;;8.41;;
70450;SDS011;58869;51.982;4.450;2023-05-10T12:15:26;7.62;;;7.62;;
70450;SDS011;58869;51.982;4.450;2023-05-10T12:17:53;7.87;;;7.87;;
70450;SDS011;58869;51.982;4.450;2023-05-10T12:26:34;6.32;;;6.32;;
70450;SDS011;58869;51.982;4.450;2023-05-10T12:29:16;6.13;;;6.13;;
70450;SDS011;58869;51.982;4.450;2023-05-10T12:31:55;6.31;;;6.31;;
70450;SDS011;58869;51.982;4.450;2023-05-10T12:34:25;6.57;;;6.57;;
70450;SDS011;58869;51.982;4.450;2023-05-10T12:37:01;7.78;;;7.78;;
70450;SDS011;58869;51.982;4.450;2023-05-10T12:39:40;7.85;;;7.85;;
70450;SDS011;58869;51.982;4.450;2023-05-10T12:42:06;7.33;;;7.33;;
70450;SDS011;58869;51.982;4.450;2023-05-10T12:44:32;7.57;;;7.57;;
70450;SDS011;58869;51.982;4.450;2023-05-10T12:47:00;8.35;;;8.35;;
70450;SDS011;58869;51.982;4.450;2023-05-10T12:49:25;8.45;;;8.45;;
70450;SDS011;58869;51.982;4.450;2023-05-10T12:51:51;7.75;;;7.75;;
70450;SDS011;58869;51.982;4.450;2023-05-10T12:54:16;7.09;;;7.07;;
70450;SDS011;58869;51.982;4.450;2023-05-10T12:56:42;6.67;;;6.67;;
70450;SDS011;58869;51.982;4.450;2023-05-10T12:59:08;6.75;;;6.75;;
70450;SDS011;58869;51.982;4.450;2023-05-10T13:01:36;6.63;;;6.63;;
70450;SDS011;58869;51.982;4.450;2023-05-10T13:04:04;6.60;;;6.60;;
70450;SDS011;58869;51.982;4.450;2023-05-10T13:06:30;6.74;;;6.72;;
70450;SDS011;58869;51.982;4.450;2023-05-10T13:08:57;7.35;;;7.33;;
70450;SDS011;58869;51.982;4.450;2023-05-10T13:11:22;7.16;;;7.16;;
70450;SDS011;58869;51.982;4.450;2023-05-10T13:13:51;7.37;;;7.29;;
70450;SDS011;58869;51.982;4.450;2023-05-10T13:16:17;6.89;;;6.78;;
70450;SDS011;58869;51.982;4.450;2023-05-10T13:18:42;6.16;;;6.16;;
70450;SDS011;58869;51.982;4.450;2023-05-10T13:21:07;6.00;;;6.00;;
70450;SDS011;58869;51.982;4.450;2023-05-10T13:23:36;5.73;;;5.72;;
70450;SDS011;58869;51.982;4.450;2023-05-10T13:26:01;5.98;;;5.95;;
70450;SDS011;58869;51.982;4.450;2023-05-10T13:28:27;5.84;;;5.84;;
70450;SDS011;58869;51.982;4.450;2023-05-10T13:30:52;5.91;;;5.91;;
70450;SDS011;58869;51.982;4.450;2023-05-10T13:33:18;5.88;;;5.88;;
70450;SDS011;58869;51.982;4.450;2023-05-10T13:42:41;6.16;;;6.16;;
70450;SDS011;58869;51.982;4.450;2023-05-10T13:45:07;5.33;;;5.33;;
70450;SDS011;58869;51.982;4.450;2023-05-10T13:47:35;5.72;;;5.72;;
70450;SDS011;58869;51.982;4.450;2023-05-10T13:50:05;5.85;;;5.85;;
70450;SDS011;58869;51.982;4.450;2023-05-10T13:52:31;6.00;;;6.00;;
70450;SDS011;58869;51.982;4.450;2023-05-10T13:54:57;5.48;;;5.48;;
70450;SDS011;58869;51.982;4.450;2023-05-10T13:57:28;5.61;;;5.61;;
70450;SDS011;58869;51.982;4.450;2023-05-10T13:59:55;5.54;;;5.54;;
70450;SDS011;58869;51.982;4.450;2023-05-10T14:05:33;5.59;;;5.59;;
70450;SDS011;58869;51.982;4.450;2023-05-10T14:08:11;5.90;;;5.90;;
70450;SDS011;58869;51.982;4.450;2023-05-10T14:10:51;6.14;;;6.14;;
70450;SDS011;58869;51.982;4.450;2023-05-10T14:13:23;6.77;;;6.77;;
70450;SDS011;58869;51.982;4.450;2023-05-10T14:15:49;7.45;;;7.45;;
70450;SDS011;58869;51.982;4.450;2023-05-10T14:18:15;7.32;;;7.32;;
70450;SDS011;58869;51.982;4.450;2023-05-10T14:20:40;7.67;;;7.67;;
70450;SDS011;58869;51.982;4.450;2023-05-10T14:23:08;7.92;;;7.92;;
70450;SDS011;58869;51.982;4.450;2023-05-10T14:25:34;7.62;;;7.62;;
70450;SDS011;58869;51.982;4.450;2023-05-10T14:27:59;7.15;;;7.15;;
70450;SDS011;58869;51.982;4.450;2023-05-10T14:30:25;6.96;;;6.96;;
70450;SDS011;58869;51.982;4.450;2023-05-10T14:32:51;6.84;;;6.84;;
70450;SDS011;58869;51.982;4.450;2023-05-10T14:35:19;6.85;;;6.85;;
70450;SDS011;58869;51.982;4.450;2023-05-10T14:37:44;6.75;;;6.75;;
70450;SDS011;58869;51.982;4.450;2023-05-10T14:40:10;6.83;;;6.83;;
70450;SDS011;58869;51.982;4.450;2023-05-10T14:42:36;6.55;;;6.55;;
70450;SDS011;58869;51.982;4.450;2023-05-10T14:45:03;6.54;;;6.54;;
70450;SDS011;58869;51.982;4.450;2023-05-10T14:47:30;5.67;;;5.67;;
70450;SDS011;58869;51.982;4.450;2023-05-10T14:49:56;5.51;;;5.51;;
70450;SDS011;58869;51.982;4.450;2023-05-10T14:52:21;5.89;;;5.89;;
70450;SDS011;58869;51.982;4.450;2023-05-10T14:54:47;5.77;;;5.77;;
70450;SDS011;58869;51.982;4.450;2023-05-10T14:57:12;5.78;;;5.78;;
70450;SDS011;58869;51.982;4.450;2023-05-10T14:59:38;5.96;;;5.96;;
70450;SDS011;58869;51.982;4.450;2023-05-10T15:02:05;5.50;;;5.50;;
70450;SDS011;58869;51.982;4.450;2023-05-10T15:04:33;5.08;;;5.08;;
70450;SDS011;58869;51.982;4.450;2023-05-10T15:06:58;5.25;;;5.25;;
70450;SDS011;58869;51.982;4.450;2023-05-10T15:09:25;4.88;;;4.88;;
70450;SDS011;58869;51.982;4.450;2023-05-10T15:11:58;4.49;;;4.49;;
70450;SDS011;58869;51.982;4.450;2023-05-10T15:14:36;4.63;;;4.63;;
70450;SDS011;58869;51.982;4.450;2023-05-10T15:17:02;4.49;;;4.49;;
70450;SDS011;58869;51.982;4.450;2023-05-10T15:19:27;4.40;;;4.40;;
70450;SDS011;58869;51.982;4.450;2023-05-10T15:21:54;4.28;;;4.28;;
70450;SDS011;58869;51.982;4.450;2023-05-10T15:24:23;4.06;;;4.06;;
70450;SDS011;58869;51.982;4.450;2023-05-10T15:26:49;4.28;;;4.28;;
70450;SDS011;58869;51.982;4.450;2023-05-10T15:29:23;3.98;;;3.98;;
70450;SDS011;58869;51.982;4.450;2023-05-10T15:31:49;3.74;;;3.74;;
70450;SDS011;58869;51.982;4.450;2023-05-10T15:34:16;3.93;;;3.93;;
70450;SDS011;58869;51.982;4.450;2023-05-10T15:36:42;4.09;;;4.09;;
70450;SDS011;58869;51.982;4.450;2023-05-10T15:39:07;3.72;;;3.72;;
70450;SDS011;58869;51.982;4.450;2023-05-10T15:41:34;3.12;;;3.12;;
70450;SDS011;58869;51.982;4.450;2023-05-10T15:44:03;2.75;;;2.75;;
70450;SDS011;58869;51.982;4.450;2023-05-10T15:49:47;3.45;;;3.45;;
70450;SDS011;58869;51.982;4.450;2023-05-10T15:52:35;3.65;;;3.65;;
70450;SDS011;58869;51.982;4.450;2023-05-10T15:55:00;3.76;;;3.76;;
70450;SDS011;58869;51.982;4.450;2023-05-10T15:57:25;3.68;;;3.68;;
70450;SDS011;58869;51.982;4.450;2023-05-10T15:59:51;3.38;;;3.38;;
70450;SDS011;58869;51.982;4.450;2023-05-10T16:02:16;3.82;;;3.82;;
70450;SDS011;58869;51.982;4.450;2023-05-10T16:04:44;4.02;;;4.02;;
70450;SDS011;58869;51.982;4.450;2023-05-10T16:07:10;4.05;;;4.05;;
70450;SDS011;58869;51.982;4.450;2023-05-10T16:09:35;4.26;;;4.26;;
70450;SDS011;58869;51.982;4.450;2023-05-10T16:12:01;4.15;;;4.15;;
70450;SDS011;58869;51.982;4.450;2023-05-10T16:14:26;4.53;;;4.53;;
70450;SDS011;58869;51.982;4.450;2023-05-10T16:16:52;4.71;;;4.71;;
70450;SDS011;58869;51.982;4.450;2023-05-10T16:19:17;3.78;;;3.78;;
70450;SDS011;58869;51.982;4.450;2023-05-10T16:21:43;3.00;;;3.00;;
70450;SDS011;58869;51.982;4.450;2023-05-10T16:24:08;2.78;;;2.78;;
70450;SDS011;58869;51.982;4.450;2023-05-10T16:26:34;2.37;;;2.37;;
70450;SDS011;58869;51.982;4.450;2023-05-10T16:29:07;2.33;;;2.33;;
70450;SDS011;58869;51.982;4.450;2023-05-10T16:31:36;2.60;;;2.60;;
70450;SDS011;58869;51.982;4.450;2023-05-10T16:34:01;2.96;;;2.96;;
70450;SDS011;58869;51.982;4.450;2023-05-10T16:36:27;3.08;;;3.08;;
70450;SDS011;58869;51.982;4.450;2023-05-10T16:38:53;3.61;;;3.61;;
70450;SDS011;58869;51.982;4.450;2023-05-10T16:41:18;5.32;;;5.32;;
70450;SDS011;58869;51.982;4.450;2023-05-10T16:43:44;5.69;;;5.69;;
70450;SDS011;58869;51.982;4.450;2023-05-10T16:46:10;5.96;;;5.96;;
70450;SDS011;58869;51.982;4.450;2023-05-10T16:48:36;6.38;;;6.38;;
70450;SDS011;58869;51.982;4.450;2023-05-10T16:51:02;7.09;;;7.09;;
70450;SDS011;58869;51.982;4.450;2023-05-10T16:53:28;6.88;;;6.88;;
70450;SDS011;58869;51.982;4.450;2023-05-10T16:55:55;6.64;;;6.64;;
70450;SDS011;58869;51.982;4.450;2023-05-10T16:58:21;6.95;;;6.95;;
70450;SDS011;58869;51.982;4.450;2023-05-10T17:00:46;7.04;;;7.04;;
70450;SDS011;58869;51.982;4.450;2023-05-10T17:03:15;7.19;;;7.19;;
70450;SDS011;58869;51.982;4.450;2023-05-10T17:05:41;7.88;;;7.71;;
70450;SDS011;58869;51.982;4.450;2023-05-10T17:08:10;7.78;;;7.70;;
70450;SDS011;58869;51.982;4.450;2023-05-10T17:10:47;7.93;;;7.93;;
70450;SDS011;58869;51.982;4.450;2023-05-10T17:13:21;7.92;;;7.92;;
70450;SDS011;58869;51.982;4.450;2023-05-10T17:21:16;9.28;;;9.27;;
70450;SDS011;58869;51.982;4.450;2023-05-10T17:23:47;9.60;;;9.40;;
70450;SDS011;58869;51.982;4.450;2023-05-10T17:26:22;8.75;;;8.75;;
70450;SDS011;58869;51.982;4.450;2023-05-10T17:32:24;8.75;;;8.75;;
70450;SDS011;58869;51.982;4.450;2023-05-10T17:34:53;8.42;;;8.42;;
70450;SDS011;58869;51.982;4.450;2023-05-10T17:37:21;8.53;;;8.38;;
70450;SDS011;58869;51.982;4.450;2023-05-10T17:39:56;8.53;;;8.51;;
70450;SDS011;58869;51.982;4.450;2023-05-10T17:42:21;8.68;;;8.56;;
70450;SDS011;58869;51.982;4.450;2023-05-10T17:44:56;8.37;;;8.35;;
70450;SDS011;58869;51.982;4.450;2023-05-10T17:47:22;8.07;;;8.07;;
70450;SDS011;58869;51.982;4.450;2023-05-10T17:49:48;7.86;;;7.86;;
70450;SDS011;58869;51.982;4.450;2023-05-10T17:52:13;7.38;;;7.38;;
70450;SDS011;58869;51.982;4.450;2023-05-10T17:54:48;7.03;;;7.00;;
70450;SDS011;58869;51.982;4.450;2023-05-10T17:57:13;7.19;;;7.19;;
70450;SDS011;58869;51.982;4.450;2023-05-10T17:59:39;7.09;;;6.99;;
70450;SDS011;58869;51.982;4.450;2023-05-10T18:02:05;7.36;;;7.18;;
70450;SDS011;58869;51.982;4.450;2023-05-10T18:04:30;6.76;;;6.76;;
70450;SDS011;58869;51.982;4.450;2023-05-10T18:06:56;6.73;;;6.69;;
70450;SDS011;58869;51.982;4.450;2023-05-10T18:09:28;6.83;;;6.75;;
70450;SDS011;58869;51.982;4.450;2023-05-10T18:11:54;7.06;;;7.03;;
70450;SDS011;58869;51.982;4.450;2023-05-10T18:14:19;6.84;;;6.82;;
70450;SDS011;58869;51.982;4.450;2023-05-10T18:16:46;7.04;;;7.03;;
70450;SDS011;58869;51.982;4.450;2023-05-10T18:19:12;7.30;;;7.26;;
70450;SDS011;58869;51.982;4.450;2023-05-10T18:21:38;7.82;;;7.78;;
70450;SDS011;58869;51.982;4.450;2023-05-10T18:24:04;8.00;;;7.81;;
70450;SDS011;58869;51.982;4.450;2023-05-10T18:26:30;8.18;;;8.04;;
70450;SDS011;58869;51.982;4.450;2023-05-10T18:28:55;8.49;;;8.33;;
70450;SDS011;58869;51.982;4.450;2023-05-10T18:31:21;8.33;;;8.33;;
70450;SDS011;58869;51.982;4.450;2023-05-10T18:33:52;8.20;;;8.17;;
70450;SDS011;58869;51.982;4.450;2023-05-10T18:39:25;7.12;;;7.12;;
70450;SDS011;58869;51.982;4.450;2023-05-10T18:41:54;7.03;;;7.02;;
70450;SDS011;58869;51.982;4.450;2023-05-10T18:44:20;7.02;;;6.97;;
70450;SDS011;58869;51.982;4.450;2023-05-10T18:46:53;6.82;;;6.79;;
70450;SDS011;58869;51.982;4.450;2023-05-10T18:49:22;7.02;;;7.02;;
70450;SDS011;58869;51.982;4.450;2023-05-10T18:51:54;6.87;;;6.87;;
70450;SDS011;58869;51.982;4.450;2023-05-10T18:54:19;7.64;;;7.55;;
70450;SDS011;58869;51.982;4.450;2023-05-10T18:56:45;7.76;;;7.75;;
70450;SDS011;58869;51.982;4.450;2023-05-10T18:59:12;7.79;;;7.79;;
70450;SDS011;58869;51.982;4.450;2023-05-10T19:01:41;8.27;;;8.26;;
70450;SDS011;58869;51.982;4.450;2023-05-10T19:04:07;7.75;;;7.75;;
70450;SDS011;58869;51.982;4.450;2023-05-10T19:06:35;7.77;;;7.77;;
70450;SDS011;58869;51.982;4.450;2023-05-10T19:09:00;7.76;;;7.75;;
70450;SDS011;58869;51.982;4.450;2023-05-10T19:11:26;7.60;;;7.56;;
70450;SDS011;58869;51.982;4.450;2023-05-10T19:13:51;7.69;;;7.58;;
70450;SDS011;58869;51.982;4.450;2023-05-10T19:16:17;7.62;;;7.62;;
70450;SDS011;58869;51.982;4.450;2023-05-10T19:18:59;7.29;;;7.29;;